BTK7557 WAAA-WAEE
Flight info
| Callsign | BTK7557 |
|---|---|
| Flight time | 1h 39m |
| Altitude | 37000 |
| Route | KENDO A450 TALIA DCT IRSET |
| Aircraft | A320/M-SDE3FGHIRWY/LB1 |
Departure
| Time | 2026-04-23 16:13 |
|---|---|
| Airport | Sultan Hasanuddin International Airport (WAAA) |
Arrival
| Time | 2026-04-23 17:53 |
|---|---|
| Airport | Sultan Babullah Airport (WAEE) |
| Time | Latitude | Longitude | Altitude | Speed | Heading |
|---|---|---|---|---|---|
| 2026-04-23 15:52 | -5.07814 | 119.54710 | 41 ft | 0 kts | 300° |
| 2026-04-23 16:00 | -5.07817 | 119.54716 | 41 ft | 4 kts | 298° |
| 2026-04-23 16:00 | -5.07829 | 119.54740 | 41 ft | 4 kts | 289° |
| 2026-04-23 16:00 | -5.07834 | 119.54766 | 40 ft | 4 kts | 258° |
| 2026-04-23 16:00 | -5.07827 | 119.54781 | 40 ft | 0 kts | 210° |
| 2026-04-23 16:07 | -5.07898 | 119.54753 | 41 ft | 9 kts | 173° |
| 2026-04-23 16:07 | -5.07901 | 119.54756 | 41 ft | 2 kts | 141° |
| 2026-04-23 16:07 | -5.07886 | 119.54857 | 41 ft | 24 kts | 83° |
| 2026-04-23 16:07 | -5.07880 | 119.54873 | 41 ft | 0 kts | 48° |
| 2026-04-23 16:08 | -5.07879 | 119.54874 | 41 ft | 2 kts | 44° |
| 2026-04-23 16:08 | -5.07825 | 119.54853 | 40 ft | 6 kts | 284° |
| 2026-04-23 16:09 | -5.07849 | 119.54820 | 40 ft | 13 kts | 216° |
| 2026-04-23 16:09 | -5.07970 | 119.54749 | 41 ft | 28 kts | 210° |
| 2026-04-23 16:09 | -5.08172 | 119.54630 | 41 ft | 39 kts | 210° |
| 2026-04-23 16:09 | -5.08424 | 119.54481 | 41 ft | 42 kts | 211° |
| 2026-04-23 16:10 | -5.08520 | 119.54447 | 41 ft | 4 kts | 145° |
| 2026-04-23 16:10 | -5.08594 | 119.54568 | 41 ft | 27 kts | 121° |
| 2026-04-23 16:10 | -5.08563 | 119.54703 | 41 ft | 21 kts | 56° |
| 2026-04-23 16:10 | -5.08588 | 119.54767 | 41 ft | 10 kts | 184° |
| 2026-04-23 16:11 | -5.08694 | 119.54714 | 43 ft | 26 kts | 210° |
| 2026-04-23 16:11 | -5.08887 | 119.54604 | 41 ft | 34 kts | 209° |
| 2026-04-23 16:11 | -5.08987 | 119.54555 | 43 ft | 3 kts | 263° |
| 2026-04-23 16:11 | -5.08952 | 119.54560 | 43 ft | 19 kts | 32° |
| 2026-04-23 16:12 | -5.08907 | 119.54590 | 43 ft | 0 kts | 30° |
| 2026-04-23 16:12 | -5.08807 | 119.54649 | 44 ft | 36 kts | 31° |
| 2026-04-23 16:12 | -5.08379 | 119.54895 | 40 ft | 104 kts | 30° |
| 2026-04-23 16:13 | -5.07584 | 119.55350 | 41 ft | 156 kts | 30° |
| 2026-04-23 16:13 | -5.05411 | 119.56007 | 1122 ft | 167 kts | 351° |
| 2026-04-23 16:13 | -5.04216 | 119.55892 | 1572 ft | 183 kts | 355° |
| 2026-04-23 16:14 | -5.02871 | 119.55844 | 1898 ft | 204 kts | 358° |
| 2026-04-23 16:14 | -5.01359 | 119.55824 | 2247 ft | 230 kts | 359° |
| 2026-04-23 16:14 | -4.99678 | 119.55823 | 2679 ft | 254 kts | 359° |
| 2026-04-23 16:14 | -4.97823 | 119.55837 | 3119 ft | 278 kts | 360° |
| 2026-04-23 16:15 | -4.95831 | 119.55859 | 3747 ft | 292 kts | 360° |
| 2026-04-23 16:15 | -4.93782 | 119.55978 | 4608 ft | 299 kts | 10° |
| 2026-04-23 16:15 | -4.91817 | 119.56673 | 5483 ft | 304 kts | 28° |
| 2026-04-23 16:15 | -4.90144 | 119.57992 | 6345 ft | 309 kts | 48° |
| 2026-04-23 16:16 | -4.88951 | 119.59850 | 6811 ft | 330 kts | 68° |
| 2026-04-23 16:16 | -4.88473 | 119.62174 | 7101 ft | 351 kts | 84° |
| 2026-04-23 16:16 | -4.88221 | 119.64639 | 7725 ft | 360 kts | 84° |
| 2026-04-23 16:16 | -4.87978 | 119.67152 | 8466 ft | 364 kts | 84° |
| 2026-04-23 16:17 | -4.87734 | 119.69699 | 9202 ft | 369 kts | 84° |
| 2026-04-23 16:17 | -4.87485 | 119.72275 | 9938 ft | 373 kts | 84° |
| 2026-04-23 16:17 | -4.87230 | 119.74856 | 10665 ft | 377 kts | 84° |
| 2026-04-23 16:17 | -4.86964 | 119.77490 | 11405 ft | 381 kts | 84° |
| 2026-04-23 16:18 | -4.86700 | 119.80090 | 12072 ft | 385 kts | 84° |
| 2026-04-23 16:18 | -4.86419 | 119.82843 | 12617 ft | 395 kts | 84° |
| 2026-04-23 16:18 | -4.86132 | 119.85642 | 12817 ft | 410 kts | 84° |
| 2026-04-23 16:18 | -4.85840 | 119.88505 | 13325 ft | 416 kts | 84° |
| 2026-04-23 16:19 | -4.85547 | 119.91401 | 13887 ft | 419 kts | 84° |
| 2026-04-23 16:19 | -4.85254 | 119.94322 | 14428 ft | 422 kts | 84° |
| 2026-04-23 16:19 | -4.84960 | 119.97255 | 14948 ft | 425 kts | 84° |
| 2026-04-23 16:19 | -4.84664 | 120.00211 | 15437 ft | 428 kts | 84° |
| 2026-04-23 16:20 | -4.84364 | 120.03189 | 15918 ft | 430 kts | 84° |
| 2026-04-23 16:20 | -4.84063 | 120.06176 | 16388 ft | 433 kts | 84° |
| 2026-04-23 16:20 | -4.83762 | 120.09190 | 16833 ft | 436 kts | 84° |
| 2026-04-23 16:20 | -4.83460 | 120.12223 | 17269 ft | 438 kts | 84° |
| 2026-04-23 16:21 | -4.83156 | 120.15275 | 17679 ft | 442 kts | 84° |
| 2026-04-23 16:21 | -4.82848 | 120.18345 | 18084 ft | 444 kts | 84° |
| 2026-04-23 16:21 | -4.82534 | 120.21438 | 18490 ft | 447 kts | 84° |
| 2026-04-23 16:21 | -4.82220 | 120.24545 | 18890 ft | 449 kts | 84° |
| 2026-04-23 16:22 | -4.81907 | 120.27664 | 19280 ft | 451 kts | 84° |
| 2026-04-23 16:22 | -4.81595 | 120.30801 | 19653 ft | 453 kts | 84° |
| 2026-04-23 16:22 | -4.81278 | 120.33949 | 20009 ft | 455 kts | 84° |
| 2026-04-23 16:22 | -4.80909 | 120.37108 | 20347 ft | 457 kts | 79° |
| 2026-04-23 16:23 | -4.80033 | 120.40178 | 20679 ft | 459 kts | 68° |
| 2026-04-23 16:23 | -4.78538 | 120.43003 | 20992 ft | 461 kts | 56° |
| 2026-04-23 16:23 | -4.76674 | 120.45626 | 21303 ft | 463 kts | 54° |
| 2026-04-23 16:23 | -4.74795 | 120.48262 | 21612 ft | 465 kts | 54° |
| 2026-04-23 16:24 | -4.72919 | 120.50904 | 21899 ft | 467 kts | 54° |
| 2026-04-23 16:24 | -4.71035 | 120.53564 | 22185 ft | 469 kts | 54° |
| 2026-04-23 16:24 | -4.69143 | 120.56237 | 22464 ft | 471 kts | 54° |
| 2026-04-23 16:24 | -4.67247 | 120.58916 | 22738 ft | 473 kts | 54° |
| 2026-04-23 16:25 | -4.65335 | 120.61615 | 22908 ft | 477 kts | 54° |
| 2026-04-23 16:25 | -4.63433 | 120.64300 | 23041 ft | 481 kts | 54° |
| 2026-04-23 16:25 | -4.61456 | 120.67086 | 23160 ft | 486 kts | 54° |
| 2026-04-23 16:25 | -4.59572 | 120.69746 | 23308 ft | 489 kts | 54° |
| 2026-04-23 16:26 | -4.57602 | 120.72527 | 23505 ft | 491 kts | 54° |
| 2026-04-23 16:26 | -4.55622 | 120.75318 | 23719 ft | 492 kts | 54° |
| 2026-04-23 16:26 | -4.53632 | 120.78122 | 23926 ft | 494 kts | 54° |
| 2026-04-23 16:26 | -4.51638 | 120.80929 | 24142 ft | 495 kts | 54° |
| 2026-04-23 16:27 | -4.49637 | 120.83745 | 24354 ft | 497 kts | 54° |
| 2026-04-23 16:27 | -4.47629 | 120.86571 | 24561 ft | 498 kts | 54° |
| 2026-04-23 16:27 | -4.45621 | 120.89402 | 24845 ft | 498 kts | 54° |
| 2026-04-23 16:27 | -4.43618 | 120.92226 | 25171 ft | 497 kts | 54° |
| 2026-04-23 16:28 | -4.41617 | 120.95051 | 25486 ft | 496 kts | 54° |
| 2026-04-23 16:28 | -4.39623 | 120.97870 | 25800 ft | 496 kts | 54° |
| 2026-04-23 16:28 | -4.37674 | 121.00618 | 26100 ft | 495 kts | 54° |
| 2026-04-23 16:28 | -4.35678 | 121.03430 | 26408 ft | 494 kts | 54° |
| 2026-04-23 16:29 | -4.33687 | 121.06233 | 26720 ft | 494 kts | 54° |
| 2026-04-23 16:29 | -4.31697 | 121.09036 | 27034 ft | 493 kts | 54° |
| 2026-04-23 16:29 | -4.29711 | 121.11834 | 27340 ft | 493 kts | 54° |
| 2026-04-23 16:29 | -4.27729 | 121.14631 | 27654 ft | 492 kts | 54° |
| 2026-04-23 16:30 | -4.25753 | 121.17424 | 27967 ft | 491 kts | 54° |
| 2026-04-23 16:30 | -4.23779 | 121.20212 | 28284 ft | 490 kts | 54° |
| 2026-04-23 16:30 | -4.21828 | 121.22961 | 29073 ft | 476 kts | 54° |
| 2026-04-23 16:30 | -4.19899 | 121.25597 | 29918 ft | 465 kts | 53° |
| 2026-04-23 16:31 | -4.17954 | 121.28171 | 30347 ft | 462 kts | 52° |
| 2026-04-23 16:31 | -4.15992 | 121.30717 | 30634 ft | 463 kts | 52° |
| 2026-04-23 16:31 | -4.14020 | 121.33265 | 30965 ft | 462 kts | 52° |
| 2026-04-23 16:31 | -4.12059 | 121.35810 | 31290 ft | 461 kts | 52° |
| 2026-04-23 16:32 | -4.10098 | 121.38369 | 31435 ft | 465 kts | 52° |
| 2026-04-23 16:32 | -4.08129 | 121.40953 | 31558 ft | 469 kts | 52° |
| 2026-04-23 16:32 | -4.06151 | 121.43565 | 31687 ft | 472 kts | 52° |
| 2026-04-23 16:32 | -4.04163 | 121.46196 | 31818 ft | 475 kts | 52° |
| 2026-04-23 16:33 | -4.02173 | 121.48837 | 32018 ft | 476 kts | 52° |
| 2026-04-23 16:33 | -4.00173 | 121.51488 | 32264 ft | 476 kts | 52° |
| 2026-04-23 16:33 | -3.98172 | 121.54130 | 32505 ft | 477 kts | 52° |
| 2026-04-23 16:33 | -3.96168 | 121.56766 | 32768 ft | 476 kts | 52° |
| 2026-04-23 16:34 | -3.94157 | 121.59413 | 32996 ft | 477 kts | 52° |
| 2026-04-23 16:34 | -3.92149 | 121.62058 | 33168 ft | 479 kts | 52° |
| 2026-04-23 16:34 | -3.90130 | 121.64715 | 33316 ft | 481 kts | 52° |
| 2026-04-23 16:34 | -3.88100 | 121.67387 | 33539 ft | 481 kts | 52° |
| 2026-04-23 16:35 | -3.86078 | 121.70049 | 33825 ft | 480 kts | 52° |
| 2026-04-23 16:35 | -3.84055 | 121.72709 | 34097 ft | 479 kts | 52° |
| 2026-04-23 16:35 | -3.82037 | 121.75362 | 34408 ft | 477 kts | 52° |
| 2026-04-23 16:35 | -3.80036 | 121.78000 | 34754 ft | 475 kts | 52° |
| 2026-04-23 16:36 | -3.78044 | 121.80630 | 35055 ft | 474 kts | 52° |
| 2026-04-23 16:36 | -3.76067 | 121.83235 | 35645 ft | 463 kts | 52° |
| 2026-04-23 16:36 | -3.74136 | 121.85775 | 36172 ft | 456 kts | 52° |
| 2026-04-23 16:36 | -3.72220 | 121.88292 | 36497 ft | 453 kts | 52° |
| 2026-04-23 16:37 | -3.70315 | 121.90798 | 36742 ft | 452 kts | 52° |
| 2026-04-23 16:37 | -3.68416 | 121.93301 | 36936 ft | 451 kts | 52° |
| 2026-04-23 16:37 | -3.64595 | 121.98336 | 37009 ft | 458 kts | 52° |
| 2026-04-23 16:38 | -3.60727 | 122.03426 | 37010 ft | 466 kts | 52° |
| 2026-04-23 16:38 | -3.56776 | 122.08620 | 37009 ft | 471 kts | 52° |
| 2026-04-23 16:39 | -3.52818 | 122.13827 | 37009 ft | 469 kts | 52° |
| 2026-04-23 16:39 | -3.48870 | 122.19020 | 37009 ft | 468 kts | 52° |
| 2026-04-23 16:40 | -3.44969 | 122.24156 | 37009 ft | 456 kts | 52° |
| 2026-04-23 16:40 | -3.41151 | 122.29175 | 37009 ft | 451 kts | 52° |
| 2026-04-23 16:41 | -3.37346 | 122.34169 | 37009 ft | 451 kts | 52° |
| 2026-04-23 16:41 | -3.33547 | 122.39155 | 37009 ft | 450 kts | 52° |
| 2026-04-23 16:42 | -3.29755 | 122.44141 | 37009 ft | 450 kts | 52° |
| 2026-04-23 16:42 | -3.26256 | 122.49335 | 37010 ft | 450 kts | 58° |
| 2026-04-23 16:43 | -3.23004 | 122.54695 | 37011 ft | 451 kts | 58° |
| 2026-04-23 16:43 | -3.19745 | 122.60051 | 37013 ft | 451 kts | 58° |
| 2026-04-23 16:44 | -3.16480 | 122.65410 | 37014 ft | 451 kts | 58° |
| 2026-04-23 16:44 | -3.13216 | 122.70765 | 37015 ft | 451 kts | 58° |
| 2026-04-23 16:45 | -3.09955 | 122.76124 | 37016 ft | 451 kts | 58° |
| 2026-04-23 16:45 | -3.06691 | 122.81483 | 37016 ft | 451 kts | 58° |
| 2026-04-23 16:46 | -3.03427 | 122.86839 | 37016 ft | 451 kts | 58° |
| 2026-04-23 16:46 | -3.00162 | 122.92198 | 37017 ft | 451 kts | 58° |
| 2026-04-23 16:47 | -2.96894 | 122.97562 | 37018 ft | 451 kts | 58° |
| 2026-04-23 16:47 | -2.93631 | 123.02917 | 37019 ft | 451 kts | 58° |
| 2026-04-23 16:48 | -2.90370 | 123.08284 | 37020 ft | 451 kts | 58° |
| 2026-04-23 16:48 | -2.87127 | 123.13614 | 37021 ft | 451 kts | 58° |
| 2026-04-23 16:49 | -2.83859 | 123.18978 | 37021 ft | 451 kts | 58° |
| 2026-04-23 16:49 | -2.80566 | 123.24368 | 37020 ft | 451 kts | 58° |
| 2026-04-23 16:50 | -2.77325 | 123.29685 | 37018 ft | 451 kts | 58° |
| 2026-04-23 16:50 | -2.74588 | 123.34178 | 37018 ft | 451 kts | 58° |
| 2026-04-23 16:51 | -2.71332 | 123.39534 | 37017 ft | 451 kts | 58° |
| 2026-04-23 16:51 | -2.68069 | 123.44884 | 37015 ft | 451 kts | 58° |
| 2026-04-23 16:52 | -2.64797 | 123.50232 | 37014 ft | 450 kts | 58° |
| 2026-04-23 16:52 | -2.61527 | 123.55577 | 37012 ft | 450 kts | 58° |
| 2026-04-23 16:53 | -2.58270 | 123.60926 | 37011 ft | 450 kts | 58° |
| 2026-04-23 16:53 | -2.55009 | 123.66279 | 37012 ft | 451 kts | 58° |
| 2026-04-23 16:54 | -2.51768 | 123.71596 | 37013 ft | 451 kts | 58° |
| 2026-04-23 16:54 | -2.48500 | 123.76942 | 37014 ft | 451 kts | 58° |
| 2026-04-23 16:55 | -2.45231 | 123.82298 | 37016 ft | 451 kts | 58° |
| 2026-04-23 16:55 | -2.41967 | 123.87654 | 37016 ft | 451 kts | 58° |
| 2026-04-23 16:56 | -2.38708 | 123.93006 | 37015 ft | 451 kts | 58° |
| 2026-04-23 16:56 | -2.35440 | 123.98352 | 37016 ft | 451 kts | 58° |
| 2026-04-23 16:57 | -2.32168 | 124.03706 | 37017 ft | 451 kts | 58° |
| 2026-04-23 16:57 | -2.28904 | 124.09055 | 37017 ft | 451 kts | 58° |
| 2026-04-23 16:58 | -2.25645 | 124.14411 | 37016 ft | 451 kts | 58° |
| 2026-04-23 16:58 | -2.22378 | 124.19760 | 37014 ft | 450 kts | 58° |
| 2026-04-23 16:59 | -2.19108 | 124.25099 | 37012 ft | 450 kts | 58° |
| 2026-04-23 16:59 | -2.15846 | 124.30441 | 37011 ft | 450 kts | 58° |
| 2026-04-23 17:00 | -2.12575 | 124.35789 | 37014 ft | 451 kts | 58° |
| 2026-04-23 17:00 | -2.09303 | 124.41136 | 37016 ft | 451 kts | 58° |
| 2026-04-23 17:01 | -2.06035 | 124.46490 | 37018 ft | 451 kts | 58° |
| 2026-04-23 17:01 | -2.02766 | 124.51846 | 37019 ft | 451 kts | 58° |
| 2026-04-23 17:02 | -1.99496 | 124.57192 | 37020 ft | 451 kts | 58° |
| 2026-04-23 17:02 | -1.96220 | 124.62544 | 37017 ft | 451 kts | 58° |
| 2026-04-23 17:03 | -1.92950 | 124.67895 | 37014 ft | 451 kts | 58° |
| 2026-04-23 17:03 | -1.89037 | 124.72767 | 37015 ft | 450 kts | 46° |
| 2026-04-23 17:04 | -1.84704 | 124.77285 | 37013 ft | 451 kts | 46° |
| 2026-04-23 17:04 | -1.80407 | 124.81797 | 37004 ft | 451 kts | 46° |
| 2026-04-23 17:05 | -1.76073 | 124.86354 | 36995 ft | 453 kts | 46° |
| 2026-04-23 17:05 | -1.71731 | 124.90914 | 37014 ft | 453 kts | 46° |
| 2026-04-23 17:06 | -1.67389 | 124.95455 | 37022 ft | 452 kts | 46° |
| 2026-04-23 17:06 | -1.63054 | 124.99995 | 37023 ft | 451 kts | 46° |
| 2026-04-23 17:07 | -1.58734 | 125.04532 | 37021 ft | 450 kts | 46° |
| 2026-04-23 17:07 | -1.54416 | 125.09061 | 37019 ft | 450 kts | 46° |
| 2026-04-23 17:08 | -1.50091 | 125.13588 | 37017 ft | 450 kts | 46° |
| 2026-04-23 17:08 | -1.45773 | 125.18112 | 37016 ft | 450 kts | 46° |
| 2026-04-23 17:09 | -1.41463 | 125.22646 | 37015 ft | 450 kts | 46° |
| 2026-04-23 17:09 | -1.37143 | 125.27173 | 37013 ft | 450 kts | 46° |
| 2026-04-23 17:10 | -1.32826 | 125.31694 | 37013 ft | 450 kts | 46° |
| 2026-04-23 17:10 | -1.28514 | 125.36221 | 37011 ft | 450 kts | 46° |
| 2026-04-23 17:11 | -1.24197 | 125.40744 | 37011 ft | 450 kts | 46° |
| 2026-04-23 17:11 | -1.19906 | 125.45232 | 37010 ft | 450 kts | 46° |
| 2026-04-23 17:12 | -1.15562 | 125.49780 | 37010 ft | 450 kts | 46° |
| 2026-04-23 17:12 | -1.11276 | 125.54269 | 37008 ft | 449 kts | 46° |
| 2026-04-23 17:13 | -1.06959 | 125.58790 | 37007 ft | 449 kts | 46° |
| 2026-04-23 17:13 | -1.02622 | 125.63342 | 37009 ft | 450 kts | 46° |
| 2026-04-23 17:14 | -0.98336 | 125.67840 | 37011 ft | 450 kts | 46° |
| 2026-04-23 17:14 | -0.93990 | 125.72400 | 37012 ft | 450 kts | 46° |
| 2026-04-23 17:15 | -0.89671 | 125.76922 | 37013 ft | 450 kts | 46° |
| 2026-04-23 17:15 | -0.85374 | 125.81411 | 37016 ft | 450 kts | 46° |
| 2026-04-23 17:16 | -0.81042 | 125.85938 | 37018 ft | 450 kts | 46° |
| 2026-04-23 17:16 | -0.76724 | 125.90464 | 37019 ft | 450 kts | 46° |
| 2026-04-23 17:17 | -0.72408 | 125.94997 | 37019 ft | 450 kts | 46° |
| 2026-04-23 17:17 | -0.68085 | 125.99528 | 37018 ft | 450 kts | 46° |
| 2026-04-23 17:18 | -0.61599 | 126.06308 | 37017 ft | 450 kts | 46° |
| 2026-04-23 17:19 | -0.57283 | 126.10830 | 37015 ft | 450 kts | 46° |
| 2026-04-23 17:19 | -0.52969 | 126.15354 | 37013 ft | 449 kts | 46° |
| 2026-04-23 17:20 | -0.48739 | 126.19949 | 37010 ft | 449 kts | 52° |
| 2026-04-23 17:21 | -0.41167 | 126.29883 | 37003 ft | 449 kts | 52° |
| 2026-04-23 17:21 | -0.35452 | 126.37405 | 34352 ft | 462 kts | 52° |
| 2026-04-23 17:22 | -0.33497 | 126.39970 | 32915 ft | 467 kts | 52° |
| 2026-04-23 17:22 | -0.29651 | 126.45009 | 31564 ft | 441 kts | 52° |
| 2026-04-23 17:23 | -0.26005 | 126.49795 | 30426 ft | 430 kts | 52° |
| 2026-04-23 17:23 | -0.24201 | 126.52161 | 29860 ft | 427 kts | 52° |
| 2026-04-23 17:23 | -0.20625 | 126.56855 | 28748 ft | 422 kts | 52° |
| 2026-04-23 17:24 | -0.18854 | 126.59181 | 27067 ft | 414 kts | 53° |
| 2026-04-23 17:24 | -0.17137 | 126.61429 | 26981 ft | 399 kts | 53° |
| 2026-04-23 17:24 | -0.13862 | 126.65714 | 26570 ft | 384 kts | 53° |
| 2026-04-23 17:25 | -0.10639 | 126.69946 | 25625 ft | 381 kts | 53° |
| 2026-04-23 17:25 | -0.09040 | 126.72044 | 25165 ft | 379 kts | 53° |
| 2026-04-23 17:26 | -0.05916 | 126.76140 | 24273 ft | 376 kts | 53° |
| 2026-04-23 17:26 | -0.02762 | 126.80277 | 23390 ft | 373 kts | 53° |
| 2026-04-23 17:27 | 0.00357 | 126.84375 | 22470 ft | 367 kts | 53° |
| 2026-04-23 17:27 | 0.01892 | 126.86396 | 22030 ft | 364 kts | 53° |
| 2026-04-23 17:27 | 0.03420 | 126.88408 | 21599 ft | 362 kts | 53° |
| 2026-04-23 17:27 | 0.04938 | 126.90404 | 21152 ft | 360 kts | 53° |
| 2026-04-23 17:28 | 0.06453 | 126.92392 | 20720 ft | 359 kts | 53° |
| 2026-04-23 17:28 | 0.07945 | 126.94344 | 20274 ft | 358 kts | 53° |
| 2026-04-23 17:28 | 0.09455 | 126.96321 | 19827 ft | 357 kts | 53° |
| 2026-04-23 17:28 | 0.10963 | 126.98296 | 19369 ft | 357 kts | 53° |
| 2026-04-23 17:29 | 0.12467 | 127.00267 | 18915 ft | 357 kts | 53° |
| 2026-04-23 17:29 | 0.13969 | 127.02237 | 18462 ft | 357 kts | 53° |
| 2026-04-23 17:29 | 0.16976 | 127.06173 | 17496 ft | 356 kts | 53° |
| 2026-04-23 17:30 | 0.17996 | 127.07495 | 17186 ft | 355 kts | 53° |
| 2026-04-23 17:30 | 0.21496 | 127.12002 | 16122 ft | 352 kts | 53° |
| 2026-04-23 17:30 | 0.22992 | 127.13927 | 15670 ft | 351 kts | 53° |
| 2026-04-23 17:31 | 0.24486 | 127.15848 | 15215 ft | 350 kts | 53° |
| 2026-04-23 17:31 | 0.25975 | 127.17761 | 14763 ft | 349 kts | 53° |
| 2026-04-23 17:31 | 0.27475 | 127.19668 | 14290 ft | 349 kts | 52° |
| 2026-04-23 17:31 | 0.28977 | 127.21568 | 13828 ft | 348 kts | 52° |
| 2026-04-23 17:32 | 0.30483 | 127.23464 | 13307 ft | 348 kts | 52° |
| 2026-04-23 17:32 | 0.31985 | 127.25352 | 12854 ft | 346 kts | 52° |
| 2026-04-23 17:32 | 0.33475 | 127.27228 | 12399 ft | 344 kts | 52° |
| 2026-04-23 17:32 | 0.34952 | 127.29097 | 11940 ft | 341 kts | 52° |
| 2026-04-23 17:33 | 0.36415 | 127.30954 | 11545 ft | 338 kts | 52° |
| 2026-04-23 17:33 | 0.37858 | 127.32787 | 11150 ft | 334 kts | 52° |
| 2026-04-23 17:33 | 0.39291 | 127.34603 | 10714 ft | 332 kts | 52° |
| 2026-04-23 17:33 | 0.40723 | 127.36414 | 10311 ft | 330 kts | 52° |
| 2026-04-23 17:34 | 0.42120 | 127.38177 | 10188 ft | 318 kts | 52° |
| 2026-04-23 17:34 | 0.43466 | 127.39878 | 10073 ft | 306 kts | 52° |
| 2026-04-23 17:34 | 0.46040 | 127.43128 | 9566 ft | 293 kts | 52° |
| 2026-04-23 17:35 | 0.47292 | 127.44711 | 9196 ft | 289 kts | 52° |
| 2026-04-23 17:35 | 0.49424 | 127.47258 | 8602 ft | 286 kts | 49° |
| 2026-04-23 17:35 | 0.51052 | 127.49014 | 8152 ft | 284 kts | 47° |
| 2026-04-23 17:36 | 0.52392 | 127.50425 | 7799 ft | 283 kts | 47° |
| 2026-04-23 17:36 | 0.53763 | 127.51871 | 7431 ft | 282 kts | 47° |
| 2026-04-23 17:36 | 0.55101 | 127.53294 | 7072 ft | 280 kts | 47° |
| 2026-04-23 17:36 | 0.55977 | 127.54231 | 6833 ft | 278 kts | 47° |
| 2026-04-23 17:37 | 0.57801 | 127.55990 | 6362 ft | 270 kts | 31° |
| 2026-04-23 17:37 | 0.58958 | 127.56450 | 6124 ft | 263 kts | 10° |
| 2026-04-23 17:37 | 0.62596 | 127.55004 | 5130 ft | 248 kts | 316° |
| 2026-04-23 17:38 | 0.63823 | 127.53814 | 4712 ft | 244 kts | 316° |
| 2026-04-23 17:38 | 0.65057 | 127.52676 | 4313 ft | 238 kts | 322° |
| 2026-04-23 17:38 | 0.66311 | 127.51663 | 4119 ft | 225 kts | 322° |
| 2026-04-23 17:38 | 0.67505 | 127.50704 | 3925 ft | 215 kts | 322° |
| 2026-04-23 17:39 | 0.68633 | 127.49799 | 3762 ft | 200 kts | 322° |
| 2026-04-23 17:39 | 0.69352 | 127.49224 | 3625 ft | 192 kts | 322° |
| 2026-04-23 17:39 | 0.70360 | 127.48414 | 3444 ft | 179 kts | 322° |
| 2026-04-23 17:39 | 0.71331 | 127.47635 | 3298 ft | 183 kts | 322° |
| 2026-04-23 17:40 | 0.72292 | 127.46863 | 3013 ft | 185 kts | 322° |
| 2026-04-23 17:40 | 0.72611 | 127.46607 | 2911 ft | 185 kts | 322° |
| 2026-04-23 17:40 | 0.73610 | 127.45806 | 2617 ft | 184 kts | 322° |
| 2026-04-23 17:41 | 0.74604 | 127.45009 | 2331 ft | 183 kts | 322° |
| 2026-04-23 17:41 | 0.76582 | 127.43417 | 1756 ft | 182 kts | 321° |
| 2026-04-23 17:41 | 0.77565 | 127.42625 | 1473 ft | 181 kts | 321° |
| 2026-04-23 17:42 | 0.79403 | 127.41145 | 964 ft | 159 kts | 321° |
| 2026-04-23 17:42 | 0.80257 | 127.40470 | 644 ft | 155 kts | 322° |
| 2026-04-23 17:42 | 0.81081 | 127.39804 | 415 ft | 152 kts | 320° |
| 2026-04-23 17:43 | 0.81898 | 127.39138 | 209 ft | 151 kts | 322° |
| 2026-04-23 17:43 | 0.82710 | 127.38486 | 63 ft | 142 kts | 321° |
| 2026-04-23 17:43 | 0.83472 | 127.37878 | 249 ft | 149 kts | 322° |
| 2026-04-23 17:43 | 0.84354 | 127.37225 | 964 ft | 165 kts | 333° |
| 2026-04-23 17:44 | 0.85472 | 127.36834 | 1686 ft | 181 kts | 347° |
| 2026-04-23 17:44 | 0.86769 | 127.36546 | 2088 ft | 203 kts | 349° |
| 2026-04-23 17:44 | 0.89790 | 127.36007 | 3229 ft | 229 kts | 358° |
| 2026-04-23 17:45 | 0.91335 | 127.36317 | 3970 ft | 230 kts | 31° |
| 2026-04-23 17:45 | 0.93355 | 127.38773 | 4076 ft | 229 kts | 73° |
| 2026-04-23 17:45 | 0.93518 | 127.40331 | 3998 ft | 226 kts | 99° |
| 2026-04-23 17:46 | 0.91958 | 127.43003 | 4011 ft | 228 kts | 132° |
| 2026-04-23 17:46 | 0.90803 | 127.44091 | 4014 ft | 229 kts | 139° |
| 2026-04-23 17:46 | 0.89584 | 127.45118 | 4006 ft | 229 kts | 139° |
| 2026-04-23 17:47 | 0.88355 | 127.46133 | 3998 ft | 229 kts | 140° |
| 2026-04-23 17:47 | 0.87123 | 127.47145 | 3998 ft | 229 kts | 140° |
| 2026-04-23 17:47 | 0.84586 | 127.49236 | 4003 ft | 245 kts | 140° |
| 2026-04-23 17:48 | 0.83268 | 127.50326 | 4008 ft | 247 kts | 140° |
| 2026-04-23 17:48 | 0.81925 | 127.51436 | 4001 ft | 255 kts | 140° |
| 2026-04-23 17:48 | 0.80541 | 127.52562 | 3996 ft | 257 kts | 143° |
| 2026-04-23 17:48 | 0.78945 | 127.53291 | 3905 ft | 250 kts | 168° |
| 2026-04-23 17:49 | 0.77251 | 127.53286 | 3742 ft | 241 kts | 193° |
| 2026-04-23 17:49 | 0.75752 | 127.52602 | 3546 ft | 235 kts | 217° |
| 2026-04-23 17:49 | 0.74601 | 127.51461 | 3357 ft | 233 kts | 227° |
| 2026-04-23 17:49 | 0.73507 | 127.50277 | 3165 ft | 232 kts | 226° |
| 2026-04-23 17:50 | 0.72452 | 127.49092 | 3039 ft | 231 kts | 235° |
| 2026-04-23 17:50 | 0.72661 | 127.46155 | 3005 ft | 230 kts | 311° |
| 2026-04-23 17:50 | 0.73838 | 127.45068 | 2916 ft | 232 kts | 323° |
| 2026-04-23 17:51 | 0.75135 | 127.44124 | 2676 ft | 226 kts | 326° |
| 2026-04-23 17:51 | 0.76435 | 127.43265 | 2162 ft | 224 kts | 332° |
| 2026-04-23 17:51 | 0.78920 | 127.41627 | 1242 ft | 206 kts | 319° |
| 2026-04-23 17:52 | 0.79955 | 127.40714 | 788 ft | 191 kts | 321° |
| 2026-04-23 17:52 | 0.81868 | 127.39157 | 209 ft | 162 kts | 323° |
| 2026-04-23 17:52 | 0.82714 | 127.38485 | 54 ft | 145 kts | 321° |
| 2026-04-23 17:53 | 0.83695 | 127.37699 | 50 ft | 34 kts | 321° |
| 2026-04-23 17:53 | 0.83786 | 127.37589 | 48 ft | 12 kts | 320° |
| 2026-04-23 17:53 | 0.83816 | 127.37602 | 48 ft | 3 kts | 68° |
| 2026-04-23 17:54 | 0.83794 | 127.37632 | 48 ft | 20 kts | 140° |
| 2026-04-23 17:54 | 0.83642 | 127.37742 | 51 ft | 28 kts | 143° |
| 2026-04-23 17:54 | 0.83479 | 127.37867 | 51 ft | 4 kts | 156° |
| 2026-04-23 17:55 | 0.83379 | 127.37812 | 51 ft | 8 kts | 176° |
| 2026-04-23 17:55 | 0.83330 | 127.37806 | 51 ft | 7 kts | 204° |
| 2026-04-23 17:55 | 0.83321 | 127.37777 | 51 ft | 4 kts | 298° |
| 2026-04-23 17:56 | 0.83327 | 127.37773 | 48 ft | 0 kts | 321° |
| 2026-04-23 17:56 | 0.83337 | 127.37765 | 50 ft | 0 kts | 323° |
| 2026-04-23 17:57 | 0.83355 | 127.37782 | 47 ft | 4 kts | 43° |
| 2026-04-23 17:57 | 0.83389 | 127.37779 | 50 ft | 5 kts | 343° |
| 2026-04-23 17:57 | 0.83413 | 127.37762 | 51 ft | 1 kts | 307° |
| 2026-04-23 17:58 | 0.83406 | 127.37754 | 51 ft | 3 kts | 240° |
| 2026-04-23 17:58 | 0.83396 | 127.37739 | 51 ft | 5 kts | 232° |
| 2026-04-23 17:58 | 0.83386 | 127.37726 | 51 ft | 0 kts | 232° |